Time;durP1;ratioP1;P1;durP2;ratioP2;P2;SDS_P1;SDS_P2;PMS_P1;PMS_P2;Temp;Humidity;BMP_temperature;BMP_pressure;BME280_temperature;BME280_humidity;BME280_pressure;Samples;Min_cycle;Max_cycle;Signal;HPM_P1;HPM_P2
2023/04/29 06:31:46;;;;;;;1.60;1.50;;;15.20;99.90;;;;;;6212429;22;20199;-66
2023/04/29 06:34:13;;;;;;;1.80;1.80;;;15.50;99.90;;;;;;6215610;23;20215;-66
2023/04/29 06:36:40;;;;;;;2.10;2.00;;;15.60;99.90;;;;;;6215527;23;20176;-66
2023/04/29 06:39:07;;;;;;;2.38;2.28;;;15.60;99.90;;;;;;6215205;23;20176;-66
2023/04/29 06:41:33;;;;;;;2.53;2.42;;;16.00;99.90;;;;;;6215555;23;20206;-66
2023/04/29 06:44:00;;;;;;;1.70;1.70;;;16.70;99.90;;;;;;6215787;23;20208;-65
2023/04/29 06:46:27;;;;;;;1.67;1.58;;;17.70;99.90;;;;;;6215958;23;20660;-65
2023/04/29 06:48:56;;;;;;;1.60;1.60;;;18.30;99.90;;;;;;6215769;23;20172;-66
2023/04/29 06:51:23;;;;;;;1.40;1.40;;;18.00;99.90;;;;;;6215396;23;20188;-66
2023/04/29 06:53:50;;;;;;;1.20;1.20;;;17.60;99.90;;;;;;6215818;23;20172;-66
2023/04/29 06:56:17;;;;;;;0.98;0.98;;;17.40;99.90;;;;;;6215414;23;20176;-66
2023/04/29 06:58:43;;;;;;;1.08;1.08;;;18.30;99.90;;;;;;6215702;23;20172;-67
2023/04/29 07:01:10;;;;;;;0.80;0.80;;;19.40;99.90;;;;;;6215427;23;20203;-67
2023/04/29 07:03:37;;;;;;;0.82;0.80;;;21.20;99.90;;;;;;6215311;23;20725;-67
2023/04/29 07:06:05;;;;;;;0.90;0.70;;;23.20;99.90;;;;;;6215647;23;20172;-67
2023/04/29 07:08:32;;;;;;;0.50;0.50;;;25.50;99.90;;;;;;6215476;23;20172;-67
2023/04/29 07:10:58;;;;;;;0.60;0.60;;;28.00;61.50;;;;;;6215006;23;20203;-67
2023/04/29 07:13:26;;;;;;;0.73;0.73;;;29.90;49.40;;;;;;6215437;23;20168;-67
2023/04/29 07:15:52;;;;;;;1.05;1.05;;;30.10;34.60;;;;;;6215483;23;20180;-67
2023/04/29 07:18:19;;;;;;;1.02;0.98;;;28.30;36.70;;;;;;6215723;23;20187;-67
2023/04/29 07:20:46;;;;;;;0.90;0.90;;;26.70;43.10;;;;;;6215491;23;20526;-67
2023/04/29 07:23:14;;;;;;;1.23;1.23;;;26.60;42.30;;;;;;6215358;23;20206;-67
2023/04/29 07:25:41;;;;;;;0.77;0.70;;;26.60;47.30;;;;;;6215806;23;20176;-67
2023/04/29 07:28:08;;;;;;;1.27;0.88;;;27.90;44.10;;;;;;6215407;23;20527;-69
2023/04/29 07:30:35;;;;;;;0.82;0.82;;;28.00;42.60;;;;;;6216194;23;20196;-67
2023/04/29 07:33:03;;;;;;;1.77;1.10;;;28.80;38.50;;;;;;6171680;23;1032916;-67
2023/04/29 07:35:29;;;;;;;1.52;1.42;;;30.00;37.20;;;;;;6217070;23;20180;-68
2023/04/29 07:37:56;;;;;;;1.30;1.17;;;31.00;39.90;;;;;;6216657;23;20633;-67
2023/04/29 07:40:25;;;;;;;1.05;1.05;;;32.20;33.50;;;;;;6216699;23;20203;-67
2023/04/29 07:42:51;;;;;;;0.90;0.90;;;32.70;29.20;;;;;;6216303;23;20271;-68
2023/04/29 07:45:18;;;;;;;1.08;1.08;;;32.80;28.10;;;;;;6216571;23;20180;-68
2023/04/29 07:47:45;;;;;;;1.15;0.60;;;32.80;28.20;;;;;;6216853;23;20176;-68
2023/04/29 07:50:12;;;;;;;0.50;0.50;;;32.80;29.20;;;;;;6216541;23;20198;-67
2023/04/29 07:52:39;;;;;;;0.40;0.40;;;32.00;25.80;;;;;;6216163;23;20172;-68
2023/04/29 07:55:06;;;;;;;2.03;0.50;;;31.10;29.70;;;;;;6216578;23;20262;-68
2023/04/29 07:57:34;;;;;;;0.60;0.30;;;31.30;28.80;;;;;;6216390;23;20211;-68
2023/04/29 08:00:01;;;;;;;1.02;0.40;;;32.30;27.50;;;;;;6216517;23;20222;-68
2023/04/29 08:02:28;;;;;;;1.27;0.40;;;32.00;26.50;;;;;;6216329;23;20215;-67
2023/04/29 08:04:55;;;;;;;0.30;0.30;;;30.50;28.10;;;;;;6216426;23;20172;-67
2023/04/29 08:07:22;;;;;;;0.55;0.55;;;29.50;29.20;;;;;;6216371;23;20641;-67
2023/04/29 08:09:48;;;;;;;0.30;0.30;;;28.10;29.70;;;;;;6216085;23;20637;-67
2023/04/29 08:12:15;;;;;;;4.03;0.70;;;27.40;36.00;;;;;;6216325;23;20199;-67
2023/04/29 08:14:43;;;;;;;0.47;0.47;;;27.70;35.40;;;;;;6217062;23;20156;-68
2023/04/29 08:17:10;;;;;;;0.70;0.70;;;27.10;32.40;;;;;;6217116;23;20188;-68
2023/04/29 08:19:37;;;;;;;0.65;0.65;;;26.30;36.80;;;;;;6217134;23;20177;-68
2023/04/29 08:22:04;;;;;;;0.93;0.60;;;25.10;40.40;;;;;;6216365;23;20560;-67
2023/04/29 08:24:32;;;;;;;0.70;0.70;;;23.40;43.00;;;;;;6216457;23;20505;-68
2023/04/29 08:26:59;;;;;;;0.60;0.60;;;21.90;57.80;;;;;;6216926;23;20172;-67
2023/04/29 08:29:25;;;;;;;0.50;0.50;;;20.80;67.90;;;;;;6216698;23;20176;-66
2023/04/29 08:31:54;;;;;;;0.55;0.50;;;20.20;93.30;;;;;;6218772;23;20267;-67
2023/04/29 08:34:20;;;;;;;0.40;0.40;;;20.00;92.80;;;;;;6217824;23;20188;-68
2023/04/29 08:36:48;;;;;;;0.47;0.40;;;20.10;91.00;;;;;;6217499;23;20183;-66
2023/04/29 08:39:15;;;;;;;0.65;0.60;;;20.20;94.00;;;;;;6216848;23;20161;-68
2023/04/29 08:41:44;;;;;;;1.05;0.70;;;20.10;87.60;;;;;;6217724;23;20238;-67
2023/04/29 08:44:10;;;;;;;0.65;0.65;;;19.70;84.20;;;;;;6217450;23;20211;-67
2023/04/29 08:46:39;;;;;;;0.70;0.70;;;19.00;97.60;;;;;;6217246;23;20180;-66
2023/04/29 08:49:08;;;;;;;0.70;0.70;;;18.30;99.90;;;;;;6217452;23;20187;-66
2023/04/29 08:51:34;;;;;;;0.65;0.65;;;18.20;99.90;;;;;;6217164;23;20669;-67
2023/04/29 08:54:01;;;;;;;1.02;0.80;;;18.20;99.90;;;;;;6216227;23;20242;-66
2023/04/29 08:56:30;;;;;;;0.70;0.70;;;18.20;99.90;;;;;;6217146;23;20172;-68
2023/04/29 08:58:58;;;;;;;0.60;0.60;;;18.50;99.90;;;;;;6217674;23;20247;-67
2023/04/29 09:01:27;;;;;;;0.50;0.50;;;18.80;99.90;;;;;;6216904;23;20230;-67
2023/04/29 09:04:01;;;;;;;1.50;0.75;;;18.80;99.90;;;;;;6216296;23;20192;-67
2023/04/29 09:06:31;;;;;;;0.85;0.85;;;18.60;99.90;;;;;;6216290;23;20593;-66
2023/04/29 09:08:59;;;;;;;1.48;0.63;;;18.00;99.90;;;;;;6216654;23;20238;-66
2023/04/29 09:11:27;;;;;;;1.30;1.02;;;17.90;99.90;;;;;;6216325;23;20263;-66
2023/04/29 09:13:59;;;;;;;0.73;0.73;;;17.60;99.90;;;;;;6216036;23;20168;-67
2023/04/29 09:16:26;;;;;;;0.93;0.68;;;17.50;99.90;;;;;;6216205;23;20157;-67
2023/04/29 09:18:54;;;;;;;0.75;0.70;;;17.30;99.90;;;;;;6216268;23;20172;-67
2023/04/29 09:21:22;;;;;;;0.65;0.65;;;17.40;99.90;;;;;;6216603;23;20200;-70
2023/04/29 09:23:51;;;;;;;0.80;0.80;;;17.60;99.90;;;;;;6217438;23;20191;-69
2023/04/29 09:26:18;;;;;;;1.85;0.90;;;17.70;99.90;;;;;;6217809;23;20664;-67
2023/04/29 09:28:46;;;;;;;1.92;1.77;;;17.30;99.90;;;;;;6218066;23;20177;-67
2023/04/29 09:31:14;;;;;;;1.27;1.27;;;17.30;99.90;;;;;;6217534;23;20192;-70
2023/04/29 09:33:51;;;;;;;2.22;2.03;;;17.50;99.90;;;;;;6218430;23;20210;-71
2023/04/29 09:36:36;;;;;;;4.03;1.48;;;17.10;99.90;;;;;;6217977;23;20179;-68
2023/04/29 09:39:10;;;;;;;1.25;1.20;;;17.10;99.90;;;;;;6216984;23;20161;-67
2023/04/29 09:41:37;;;;;;;1.27;1.20;;;17.10;99.90;;;;;;6217637;23;20522;-67
2023/04/29 09:44:05;;;;;;;1.15;1.15;;;17.40;99.90;;;;;;6215726;23;20189;-68
2023/04/29 09:46:33;;;;;;;0.90;0.90;;;17.20;99.90;;;;;;6215839;23;20527;-69
2023/04/29 09:49:00;;;;;;;1.80;1.70;;;17.40;99.90;;;;;;6216111;23;20176;-69
2023/04/29 10:56:38;;;;;;;0.80;0.80;;;17.90;99.90;;;;;;6207302;22;20211;-68
2023/04/29 10:59:05;;;;;;;1.73;1.63;;;17.90;99.90;;;;;;6217873;23;20188;-67
2023/04/29 11:01:49;;;;;;;0.82;0.82;;;17.90;99.90;;;;;;6218056;23;20180;-68
2023/04/29 11:04:17;;;;;;;1.58;0.80;;;18.00;99.90;;;;;;6216817;23;20188;-68
2023/04/29 11:06:51;;;;;;;0.75;0.75;;;18.10;99.90;;;;;;6217402;23;20200;-68
2023/04/29 11:09:25;;;;;;;1.50;0.80;;;18.10;99.90;;;;;;6217169;23;20156;-68
2023/04/29 11:12:02;;;;;;;1.02;1.00;;;17.80;99.90;;;;;;6216846;23;20167;-68
2023/04/29 11:14:41;;;;;;;1.17;0.95;;;17.60;99.90;;;;;;6216922;23;20577;-68
2023/04/29 11:17:10;;;;;;;6.13;0.70;;;17.60;99.90;;;;;;6216540;23;20210;-68
2023/04/29 11:19:43;;;;;;;0.82;0.70;;;17.50;99.90;;;;;;6216691;23;20183;-68
2023/04/29 11:22:24;;;;;;;0.98;0.98;;;17.50;99.90;;;;;;6216271;23;20184;-68
2023/04/29 11:24:52;;;;;;;11.70;1.13;;;17.40;99.90;;;;;;6216942;23;20164;-69
2023/04/29 11:27:24;;;;;;;0.70;0.70;;;17.40;99.90;;;;;;6216390;23;20673;-68
2023/04/29 11:29:51;;;;;;;0.70;0.70;;;17.70;99.90;;;;;;6216831;23;20156;-68
2023/04/29 11:32:21;;;;;;;0.98;0.60;;;17.90;99.90;;;;;;6216745;23;20172;-68
2023/04/29 11:34:48;;;;;;;0.95;0.80;;;18.00;99.90;;;;;;6217423;23;20180;-68
2023/04/29 11:37:23;;;;;;;1.00;0.77;;;17.90;97.60;;;;;;6216768;23;20242;-67
2023/04/29 11:39:51;;;;;;;0.60;0.60;;;17.90;99.90;;;;;;6216902;23;20167;-67
2023/04/29 11:42:22;;;;;;;1.48;1.00;;;18.00;99.90;;;;;;6218311;23;20183;-67
2023/04/29 11:44:52;;;;;;;0.70;0.70;;;18.10;99.10;;;;;;6217360;23;20180;-67
2023/04/29 11:47:20;;;;;;;0.60;0.60;;;18.00;91.60;;;;;;6216477;23;20203;-68
2023/04/29 11:49:47;;;;;;;0.80;0.80;;;18.00;95.10;;;;;;6216150;23;20633;-68
2023/04/29 11:52:14;;;;;;;0.80;0.80;;;18.00;99.50;;;;;;6216522;23;20176;-68
2023/04/29 11:54:41;;;;;;;0.77;0.77;;;18.00;97.70;;;;;;6217029;23;20176;-68
2023/04/29 11:57:10;;;;;;;1.35;0.95;;;17.90;95.10;;;;;;6216912;23;20227;-68
2023/04/29 11:59:39;;;;;;;1.23;1.08;;;17.70;97.20;;;;;;6215996;23;20184;-68
2023/04/29 12:02:06;;;;;;;0.85;0.85;;;17.70;99.00;;;;;;6216231;23;20173;-68
2023/04/29 12:04:33;;;;;;;0.95;0.95;;;17.60;99.90;;;;;;6216279;23;20192;-68
2023/04/29 12:06:59;;;;;;;1.10;0.70;;;17.70;99.90;;;;;;6216516;23;20193;-68
2023/04/29 12:09:26;;;;;;;1.20;0.80;;;17.90;99.90;;;;;;6223112;23;20176;-68
2023/04/29 12:11:53;;;;;;;0.65;0.60;;;17.90;97.00;;;;;;6236719;23;20205;-68
2023/04/29 12:14:20;;;;;;;1.55;0.70;;;17.70;96.20;;;;;;6235999;23;20163;-68
2023/04/29 12:16:48;;;;;;;1.48;0.73;;;17.50;97.10;;;;;;6223654;23;20193;-68
2023/04/29 12:19:15;;;;;;;1.13;1.00;;;17.40;98.80;;;;;;6217397;23;20167;-68
2023/04/29 12:21:51;;;;;;;0.70;0.70;;;17.30;95.80;;;;;;6216513;23;20176;-68
2023/04/29 12:24:17;;;;;;;1.33;0.80;;;17.20;98.90;;;;;;6216801;23;20227;-68
2023/04/29 12:26:45;;;;;;;2.42;1.00;;;17.30;97.80;;;;;;6216070;23;20196;-72
2023/04/29 12:29:13;;;;;;;0.80;0.80;;;17.30;97.80;;;;;;6215191;23;20641;-67
2023/04/29 12:31:40;;;;;;;0.90;0.90;;;17.20;97.60;;;;;;6216000;23;20187;-68
2023/04/29 12:34:09;;;;;;;0.80;0.80;;;17.20;99.90;;;;;;6215821;23;20231;-68
2023/04/29 12:36:36;;;;;;;0.80;0.80;;;17.30;99.90;;;;;;6215677;23;20661;-68
2023/04/29 12:39:07;;;;;;;0.60;0.60;;;17.30;94.00;;;;;;6215640;23;20558;-67
2023/04/29 12:41:37;;;;;;;0.82;0.80;;;17.30;98.00;;;;;;6215834;23;20172;-67
2023/04/29 12:44:05;;;;;;;0.90;0.90;;;17.50;95.90;;;;;;6215910;23;20188;-68
2023/04/29 12:46:35;;;;;;;2.75;0.68;;;17.50;93.00;;;;;;6215921;23;20537;-67
2023/04/29 12:49:02;;;;;;;1.98;0.90;;;17.50;91.60;;;;;;6216406;23;20292;-68
2023/04/29 12:51:31;;;;;;;0.80;0.80;;;17.60;89.90;;;;;;6216019;23;20207;-68
2023/04/29 12:53:59;;;;;;;2.53;0.90;;;17.60;91.80;;;;;;6215911;23;20168;-68
2023/04/29 12:56:25;;;;;;;0.90;0.80;;;17.70;90.80;;;;;;6215939;23;20198;-67
2023/04/29 12:58:52;;;;;;;0.70;0.70;;;17.60;78.00;;;;;;6216137;23;20187;-67
2023/04/29 13:01:19;;;;;;;3.15;1.00;;;17.50;84.10;;;;;;6216036;23;20176;-68
2023/04/29 13:03:46;;;;;;;2.42;1.13;;;17.40;83.20;;;;;;6215567;23;20180;-68
2023/04/29 13:06:12;;;;;;;2.08;1.13;;;17.50;91.20;;;;;;6216210;23;20270;-67
2023/04/29 13:08:41;;;;;;;1.02;1.02;;;17.60;90.10;;;;;;6216475;23;20176;-67
2023/04/29 13:11:07;;;;;;;1.05;1.05;;;17.60;83.20;;;;;;6216182;23;20172;-67
2023/04/29 13:13:34;;;;;;;1.55;1.45;;;17.60;85.70;;;;;;6216215;23;20168;-67
2023/04/29 13:16:01;;;;;;;0.98;0.80;;;17.60;90.50;;;;;;6215672;23;20203;-65
2023/04/29 13:18:28;;;;;;;1.70;1.65;;;17.60;87.90;;;;;;6215796;23;20513;-67
2023/04/29 13:20:54;;;;;;;2.90;2.70;;;17.60;82.10;;;;;;6216249;23;20176;-66
2023/04/29 13:23:21;;;;;;;2.70;2.58;;;17.50;85.30;;;;;;6215838;23;20192;-67
2023/04/29 13:25:50;;;;;;;3.05;2.85;;;17.40;81.70;;;;;;6215888;23;20196;-67
2023/04/29 13:28:17;;;;;;;7.78;6.93;;;17.50;90.10;;;;;;6215578;23;20638;-67
2023/04/29 13:30:43;;;;;;;14.07;9.70;;;17.40;83.90;;;;;;6215851;23;20176;-67
2023/04/29 13:33:10;;;;;;;37.33;25.83;;;17.40;86.60;;;;;;6215584;23;20514;-67
2023/04/29 13:35:38;;;;;;;7.72;6.35;;;17.50;85.80;;;;;;6216707;23;20161;-67
2023/04/29 13:38:05;;;;;;;2.70;2.47;;;17.50;87.00;;;;;;6215849;23;20179;-67
2023/04/29 13:40:32;;;;;;;10.02;7.00;;;17.50;82.50;;;;;;6217202;23;20176;-67
2023/04/29 13:43:00;;;;;;;9.52;7.60;;;17.50;84.90;;;;;;6217150;23;20509;-67
2023/04/29 13:45:27;;;;;;;2.50;2.30;;;17.60;83.20;;;;;;6217628;23;20203;-67
2023/04/29 13:47:53;;;;;;;1.10;1.10;;;17.50;80.60;;;;;;6217816;23;20172;-67
2023/04/29 13:50:20;;;;;;;1.85;1.75;;;17.60;83.90;;;;;;6217707;23;20173;-67
2023/04/29 13:52:47;;;;;;;1.33;1.33;;;17.50;83.20;;;;;;6217941;23;20258;-66
2023/04/29 13:55:14;;;;;;;1.13;0.88;;;17.50;84.10;;;;;;6217382;23;20179;-66
2023/04/29 13:57:41;;;;;;;3.25;2.20;;;17.50;84.80;;;;;;6217482;23;20738;-66
2023/04/29 14:00:11;;;;;;;1.83;1.70;;;17.40;82.60;;;;;;6217374;23;20180;-66
2023/04/29 14:02:38;;;;;;;17.52;7.45;;;17.30;81.90;;;;;;6218384;23;20157;-66
2023/04/29 14:05:05;;;;;;;2.25;2.05;;;17.40;85.30;;;;;;6217489;23;20192;-66
2023/04/29 14:07:32;;;;;;;1.25;1.15;;;17.30;83.60;;;;;;6217581;23;20192;-66
2023/04/29 14:09:59;;;;;;;1.20;1.20;;;17.30;81.30;;;;;;6217757;23;20176;-65
2023/04/29 14:12:25;;;;;;;8.30;3.42;;;17.20;87.00;;;;;;6217013;23;20625;-65
2023/04/29 14:14:53;;;;;;;4.03;2.60;;;17.20;90.70;;;;;;6217362;23;20175;-66
2023/04/29 14:17:21;;;;;;;3.78;3.40;;;17.30;85.30;;;;;;6217427;23;20193;-65
2023/04/29 14:19:47;;;;;;;1.25;1.25;;;17.20;83.20;;;;;;6217103;23;20173;-66
2023/04/29 14:22:14;;;;;;;0.90;0.90;;;17.20;89.30;;;;;;6217027;23;20513;-65
2023/04/29 14:24:41;;;;;;;1.60;1.60;;;17.30;84.70;;;;;;6217425;23;20201;-66
2023/04/29 14:27:07;;;;;;;1.52;1.17;;;17.10;92.00;;;;;;6217200;23;20227;-66
2023/04/29 14:29:34;;;;;;;1.45;1.35;;;17.10;91.00;;;;;;6217276;23;20183;-66
2023/04/29 14:32:01;;;;;;;0.70;0.70;;;17.00;90.60;;;;;;6217234;23;20203;-66
2023/04/29 14:34:29;;;;;;;1.60;1.50;;;16.90;90.70;;;;;;6217217;23;20180;-66
2023/04/29 14:36:57;;;;;;;3.70;1.40;;;16.90;93.20;;;;;;6217191;23;20279;-66
2023/04/29 14:39:24;;;;;;;0.98;0.95;;;16.80;93.70;;;;;;6217366;23;20176;-66
2023/04/29 14:41:51;;;;;;;1.33;1.23;;;16.90;92.90;;;;;;6217193;23;20176;-66
2023/04/29 14:44:18;;;;;;;1.08;0.90;;;17.00;93.20;;;;;;6217168;23;20195;-66
2023/04/29 14:46:45;;;;;;;0.70;0.70;;;16.90;91.30;;;;;;6216673;23;20699;-66
2023/04/29 14:49:12;;;;;;;0.90;0.90;;;17.00;90.10;;;;;;6217153;23;20239;-66
2023/04/29 14:51:40;;;;;;;1.30;0.88;;;17.00;90.20;;;;;;6216510;23;20180;-67
2023/04/29 14:54:07;;;;;;;1.50;1.10;;;17.00;89.40;;;;;;6216725;23;20645;-67
2023/04/29 14:56:35;;;;;;;2.08;1.08;;;17.00;85.80;;;;;;6217102;23;20262;-66
2023/04/29 14:59:03;;;;;;;2.58;1.08;;;16.90;91.60;;;;;;6217057;23;20570;-66
2023/04/29 15:01:30;;;;;;;3.75;1.38;;;16.80;92.40;;;;;;6216784;23;20634;-66
2023/04/29 15:03:56;;;;;;;7.20;4.18;;;16.80;92.30;;;;;;6217020;23;20176;-66
2023/04/29 15:06:23;;;;;;;3.50;2.40;;;16.80;88.60;;;;;;6216926;23;20203;-66
2023/04/29 15:08:51;;;;;;;1.55;1.48;;;16.80;89.70;;;;;;6217013;23;20176;-67
2023/04/29 15:11:18;;;;;;;1.20;1.10;;;16.90;91.50;;;;;;6216898;23;20512;-66
2023/04/29 15:13:45;;;;;;;1.38;1.38;;;17.00;90.30;;;;;;6216960;23;20169;-66
2023/04/29 15:16:11;;;;;;;1.02;1.02;;;17.10;87.70;;;;;;6216444;23;20529;-66
2023/04/29 15:18:38;;;;;;;1.10;1.10;;;16.90;80.40;;;;;;6216715;23;20657;-65
2023/04/29 15:21:05;;;;;;;1.02;0.93;;;16.90;87.90;;;;;;6216856;23;20227;-66
2023/04/29 15:23:32;;;;;;;2.10;1.00;;;16.90;83.20;;;;;;6216782;23;20268;-66
2023/04/29 15:26:00;;;;;;;0.90;0.90;;;16.90;78.90;;;;;;6216893;23;20193;-66
2023/04/29 15:28:27;;;;;;;2.70;1.73;;;16.70;83.60;;;;;;6216560;23;20179;-66
2023/04/29 15:30:54;;;;;;;3.53;1.50;;;16.60;85.00;;;;;;6216831;23;20177;-65
2023/04/29 15:33:20;;;;;;;2.03;0.95;;;16.60;90.30;;;;;;6216931;23;20176;-66
2023/04/29 15:35:47;;;;;;;1.08;0.90;;;16.60;88.50;;;;;;6217182;23;20193;-65
2023/04/29 15:38:14;;;;;;;1.60;1.50;;;16.40;82.00;;;;;;6217652;23;20177;-65
2023/04/29 15:40:40;;;;;;;1.30;1.25;;;16.30;83.90;;;;;;6217318;23;20184;-66
2023/04/29 15:43:08;;;;;;;2.17;1.00;;;16.30;87.70;;;;;;6216969;23;20157;-66
2023/04/29 15:45:35;;;;;;;1.02;0.88;;;16.10;87.90;;;;;;6216924;23;20199;-66
2023/04/29 15:48:02;;;;;;;1.63;1.52;;;16.10;86.50;;;;;;6216512;23;20177;-66
2023/04/29 15:50:28;;;;;;;1.00;1.00;;;16.00;88.00;;;;;;6217017;23;20172;-66
2023/04/29 15:52:57;;;;;;;1.00;1.00;;;16.10;90.00;;;;;;6216568;23;20619;-67
2023/04/29 15:55:24;;;;;;;1.38;1.08;;;16.10;84.20;;;;;;6216798;23;20231;-66
2023/04/29 15:57:51;;;;;;;2.08;1.98;;;16.00;84.50;;;;;;6216451;23;20179;-66
2023/04/29 16:00:19;;;;;;;1.30;1.30;;;16.00;86.80;;;;;;6216412;23;20183;-67
2023/04/29 16:02:45;;;;;;;2.38;1.60;;;15.90;81.20;;;;;;6216609;23;20157;-67
2023/04/29 16:05:12;;;;;;;2.60;0.88;;;15.80;77.90;;;;;;6216604;23;20271;-66
2023/04/29 16:07:39;;;;;;;0.95;0.95;;;15.80;82.00;;;;;;6216335;23;20192;-64
2023/04/29 16:10:06;;;;;;;2.53;0.90;;;15.70;80.20;;;;;;6216582;23;20180;-66
2023/04/29 16:12:33;;;;;;;0.90;0.90;;;15.60;79.50;;;;;;6215835;23;20668;-65
2023/04/29 16:15:00;;;;;;;1.00;0.93;;;15.50;79.30;;;;;;6216292;23;20181;-65
2023/04/29 16:17:28;;;;;;;1.40;1.40;;;15.60;80.50;;;;;;6216213;23;20192;-65
2023/04/29 16:19:55;;;;;;;2.55;1.42;;;15.50;81.40;;;;;;6216330;23;20176;-65
2023/04/29 16:22:21;;;;;;;1.20;1.20;;;15.50;88.20;;;;;;6216155;23;20176;-65
2023/04/29 16:24:48;;;;;;;1.10;1.08;;;15.50;88.60;;;;;;6216018;23;20188;-66
2023/04/29 16:27:15;;;;;;;2.85;0.93;;;15.50;90.90;;;;;;6215410;23;20319;-66
2023/04/29 16:29:42;;;;;;;1.75;1.10;;;15.60;89.60;;;;;;6216006;23;20176;-66
2023/04/29 16:32:08;;;;;;;0.90;0.90;;;15.60;86.10;;;;;;6216399;23;20172;-67
2023/04/29 16:34:36;;;;;;;1.45;0.80;;;15.60;84.30;;;;;;6216301;23;20169;-67
2023/04/29 16:37:03;;;;;;;2.05;1.00;;;15.50;84.50;;;;;;6215848;23;20669;-67
2023/04/29 16:39:30;;;;;;;0.90;0.90;;;15.50;86.00;;;;;;6216164;23;20173;-67
2023/04/29 16:41:58;;;;;;;0.98;0.98;;;15.50;82.90;;;;;;6215902;23;20180;-66
2023/04/29 16:44:24;;;;;;;0.93;0.90;;;15.40;90.20;;;;;;6216102;23;20192;-67
2023/04/29 16:46:51;;;;;;;1.38;1.10;;;15.30;92.10;;;;;;6215940;23;20196;-66
2023/04/29 16:49:23;;;;;;;1.17;1.17;;;15.30;95.20;;;;;;6216285;23;20172;-67
2023/04/29 16:51:51;;;;;;;2.88;1.08;;;15.30;97.80;;;;;;6216230;23;20164;-66
2023/04/29 16:54:17;;;;;;;1.27;1.20;;;15.20;98.60;;;;;;6216104;23;20175;-66
2023/04/29 16:56:44;;;;;;;0.90;0.90;;;15.10;98.90;;;;;;6216208;23;20680;-66
2023/04/29 16:59:11;;;;;;;1.48;1.38;;;15.00;99.90;;;;;;6215896;23;20708;-65
2023/04/29 17:01:38;;;;;;;0.90;0.90;;;14.90;99.90;;;;;;6216295;23;20177;-66
2023/04/29 17:04:05;;;;;;;1.60;1.50;;;14.90;99.90;;;;;;6216022;23;20176;-66
2023/04/29 17:06:33;;;;;;;1.25;1.10;;;14.80;99.90;;;;;;6216195;23;20192;-66
2023/04/29 17:09:02;;;;;;;2.35;2.20;;;14.70;99.90;;;;;;6215857;23;20255;-66
2023/04/29 17:11:28;;;;;;;1.70;1.63;;;14.60;99.90;;;;;;6216030;23;20665;-65
2023/04/29 17:13:55;;;;;;;1.10;1.10;;;14.50;99.90;;;;;;6216273;22;20204;-69
2023/04/29 17:16:22;;;;;;;1.20;1.20;;;14.50;99.90;;;;;;6218190;23;20168;-70
2023/04/29 17:18:48;;;;;;;4.45;1.10;;;14.50;99.90;;;;;;6218209;23;20176;-70
2023/04/29 17:21:15;;;;;;;1.50;1.40;;;14.40;99.90;;;;;;6218625;23;20177;-71
2023/04/29 17:23:42;;;;;;;1.35;1.30;;;14.30;99.90;;;;;;6218027;23;20677;-71
2023/04/29 17:26:10;;;;;;;2.15;2.05;;;14.30;99.90;;;;;;6217995;23;20223;-70
2023/04/29 17:28:36;;;;;;;1.60;1.50;;;14.30;99.90;;;;;;6218145;23;20187;-69
2023/04/29 17:31:05;;;;;;;2.88;2.50;;;14.20;99.90;;;;;;6217743;23;20176;-69
2023/04/29 17:33:34;;;;;;;1.20;1.20;;;14.20;99.90;;;;;;6218023;23;20197;-70
2023/04/29 17:36:01;;;;;;;1.35;1.25;;;14.10;99.90;;;;;;6218247;23;20227;-70
2023/04/29 17:38:28;;;;;;;1.45;1.35;;;14.00;99.90;;;;;;6218144;23;20181;-69
2023/04/29 17:40:54;;;;;;;1.00;1.00;;;14.00;99.90;;;;;;6217866;23;20264;-69
2023/04/29 17:43:22;;;;;;;0.95;0.95;;;13.90;99.90;;;;;;6217624;23;20192;-70
2023/04/29 17:45:49;;;;;;;1.30;1.20;;;13.80;99.90;;;;;;6217566;23;20199;-70
2023/04/29 17:48:18;;;;;;;1.10;1.10;;;13.80;99.90;;;;;;6217393;23;20485;-70
2023/04/29 17:50:44;;;;;;;1.70;1.60;;;13.70;99.90;;;;;;6217730;23;20179;-71
2023/04/29 17:53:11;;;;;;;3.15;1.88;;;13.70;99.90;;;;;;6217185;23;20674;-71
2023/04/29 17:55:38;;;;;;;1.98;1.70;;;13.50;99.90;;;;;;6217759;23;20169;-71
2023/04/29 17:58:05;;;;;;;2.60;2.40;;;13.50;99.90;;;;;;6217662;23;20179;-70
2023/04/29 18:00:34;;;;;;;2.80;2.60;;;13.40;99.90;;;;;;6217549;23;20177;-70
2023/04/29 18:03:01;;;;;;;3.30;3.00;;;13.30;99.90;;;;;;6217663;23;20192;-72
2023/04/29 18:05:27;;;;;;;3.35;2.95;;;13.20;99.90;;;;;;6217588;23;20525;-72
2023/04/29 18:07:54;;;;;;;2.92;2.72;;;13.00;99.90;;;;;;6217573;23;20173;-72
2023/04/29 18:10:21;;;;;;;4.95;3.70;;;12.90;99.90;;;;;;6217878;23;20172;-72
2023/04/29 18:12:48;;;;;;;2.80;2.60;;;12.80;99.90;;;;;;6217215;23;20192;-71
2023/04/29 18:15:15;;;;;;;4.50;3.10;;;12.70;99.90;;;;;;6217788;23;20157;-71
2023/04/29 18:17:44;;;;;;;3.55;3.25;;;12.60;99.90;;;;;;6217625;23;20180;-71
2023/04/29 18:20:12;;;;;;;3.25;2.95;;;12.50;99.90;;;;;;6217702;23;20180;-71
2023/04/29 18:22:39;;;;;;;4.88;3.58;;;12.40;99.90;;;;;;6217459;23;20255;-71
2023/04/29 18:25:06;;;;;;;3.40;3.05;;;12.30;99.90;;;;;;6217355;23;20192;-71
2023/04/29 18:27:33;;;;;;;5.38;3.40;;;12.20;99.90;;;;;;6217354;23;20180;-71
2023/04/29 18:30:00;;;;;;;3.22;2.92;;;12.10;99.90;;;;;;6218157;23;20231;-71
2023/04/29 18:32:26;;;;;;;3.45;3.15;;;12.00;99.90;;;;;;6217262;23;20177;-71
2023/04/29 18:34:55;;;;;;;4.80;3.55;;;11.90;99.90;;;;;;6217496;23;20173;-71
2023/04/29 18:37:22;;;;;;;3.97;2.85;;;11.90;99.90;;;;;;6217457;23;20172;-71
2023/04/29 18:39:48;;;;;;;5.05;3.47;;;11.80;99.90;;;;;;6217429;23;20173;-71
2023/04/29 18:42:15;;;;;;;3.38;3.17;;;11.80;99.90;;;;;;6217387;23;20177;-71
2023/04/29 18:44:47;;;;;;;3.85;3.55;;;11.70;99.90;;;;;;6217614;23;20197;-75
2023/04/29 18:47:13;;;;;;;4.10;3.80;;;11.70;99.90;;;;;;6217400;23;20244;-72
2023/04/29 18:49:40;;;;;;;3.53;3.22;;;11.60;99.90;;;;;;6218470;23;20188;-71
2023/04/29 18:52:08;;;;;;;3.13;2.95;;;11.60;99.90;;;;;;6218554;23;20178;-71
2023/04/29 18:54:35;;;;;;;3.75;3.45;;;11.60;99.90;;;;;;6217064;23;20693;-72
2023/04/29 18:57:02;;;;;;;4.07;3.47;;;11.50;99.90;;;;;;6217375;23;20161;-71
2023/04/29 18:59:29;;;;;;;5.50;5.05;;;11.40;99.90;;;;;;6217239;23;20179;-71
2023/04/29 19:01:56;;;;;;;5.47;5.00;;;11.40;99.90;;;;;;6217259;23;20215;-70
2023/04/29 19:04:22;;;;;;;3.70;3.50;;;11.30;99.90;;;;;;6216971;23;20216;-71
2023/04/29 19:06:49;;;;;;;3.60;3.40;;;11.30;99.90;;;;;;6217225;23;20181;-70
2023/04/29 19:09:17;;;;;;;4.15;3.85;;;11.20;99.90;;;;;;6217113;23;20219;-70
2023/04/29 19:11:44;;;;;;;3.80;3.50;;;11.20;99.90;;;;;;6217177;23;20176;-71
2023/04/29 19:14:10;;;;;;;3.80;3.50;;;11.10;99.90;;;;;;6216264;23;20637;-70
2023/04/29 19:16:38;;;;;;;4.15;3.92;;;11.00;99.90;;;;;;6217139;23;20173;-71
2023/04/29 19:19:05;;;;;;;4.43;4.05;;;10.90;99.90;;;;;;6217052;23;20248;-70
2023/04/29 19:21:32;;;;;;;5.10;4.38;;;10.80;99.90;;;;;;6217002;23;20184;-70
2023/04/29 19:23:59;;;;;;;5.20;4.80;;;10.80;99.90;;;;;;6217098;23;20200;-71
2023/04/29 19:26:27;;;;;;;6.38;4.70;;;10.70;99.90;;;;;;6216868;23;20524;-72
2023/04/29 19:28:54;;;;;;;6.18;4.90;;;10.70;99.90;;;;;;6216557;23;20521;-71
2023/04/29 19:31:21;;;;;;;5.43;4.93;;;10.60;99.90;;;;;;6216820;23;20184;-70
2023/04/29 19:33:48;;;;;;;4.80;4.10;;;10.50;99.90;;;;;;6216686;23;20575;-70
2023/04/29 19:36:15;;;;;;;5.65;5.05;;;10.50;99.90;;;;;;6216457;23;20180;-70
2023/04/29 19:38:42;;;;;;;4.72;4.32;;;10.40;99.90;;;;;;6216494;23;20177;-70
2023/04/29 19:41:08;;;;;;;5.07;4.68;;;10.40;99.90;;;;;;6216782;23;20172;-71
2023/04/29 19:43:36;;;;;;;4.30;3.92;;;10.30;99.90;;;;;;6216535;23;20197;-71
2023/04/29 19:46:03;;;;;;;5.10;4.70;;;10.30;99.90;;;;;;6216604;23;20193;-71
2023/04/29 19:48:30;;;;;;;5.10;4.60;;;10.30;99.90;;;;;;6216812;23;20176;-71
2023/04/29 19:50:58;;;;;;;4.53;4.13;;;10.20;99.90;;;;;;6216184;23;20638;-70
2023/04/29 19:53:25;;;;;;;7.57;4.35;;;10.20;99.90;;;;;;6216468;23;20328;-70
2023/04/29 19:55:52;;;;;;;4.88;4.47;;;10.10;99.90;;;;;;6216507;23;20521;-70
2023/04/29 19:58:19;;;;;;;4.90;4.45;;;10.10;99.90;;;;;;6216516;23;20217;-70
2023/04/29 20:00:47;;;;;;;3.83;3.63;;;10.10;99.90;;;;;;6216403;23;20184;-70
2023/04/29 20:03:14;;;;;;;5.50;5.00;;;10.00;99.90;;;;;;6216382;23;20569;-70
2023/04/29 20:05:41;;;;;;;4.32;4.00;;;10.00;99.90;;;;;;6216396;23;20197;-70
2023/04/29 20:08:08;;;;;;;5.55;5.05;;;10.00;99.90;;;;;;6216417;23;20173;-70
2023/04/29 20:10:35;;;;;;;11.13;7.63;;;10.00;99.90;;;;;;6216466;23;20177;-70
2023/04/29 20:13:02;;;;;;;9.05;6.20;;;9.90;99.90;;;;;;6216029;23;20207;-70
2023/04/29 20:15:28;;;;;;;6.18;5.57;;;9.90;99.90;;;;;;6216125;23;20630;-70
2023/04/29 20:17:56;;;;;;;5.50;4.65;;;9.90;99.90;;;;;;6216405;23;20176;-70
2023/04/29 20:20:24;;;;;;;5.32;4.82;;;9.80;99.90;;;;;;6216270;23;20176;-70
2023/04/29 20:22:51;;;;;;;5.32;4.93;;;9.80;99.90;;;;;;6215884;23;20586;-71